createdAt,value
2023-05-17T10:26:52.402Z,12.45
2023-05-17T10:27:52.405Z,12.57
2023-05-17T10:28:52.395Z,12.67
2023-05-17T10:29:52.391Z,12.71
2023-05-17T10:30:52.391Z,12.81
2023-05-17T10:31:52.366Z,12.92
2023-05-17T10:32:52.439Z,12.99
2023-05-17T10:33:52.427Z,13.00
2023-05-17T10:35:02.077Z,12.99
2023-05-17T10:35:52.312Z,12.96
2023-05-17T10:36:52.319Z,12.95
2023-05-17T10:37:52.314Z,12.88
2023-05-17T10:38:52.284Z,12.88
2023-05-17T10:39:52.299Z,12.82
2023-05-17T10:40:52.264Z,12.71
2023-05-17T10:41:53.000Z,12.60
2023-05-17T10:42:52.299Z,12.45
2023-05-17T10:43:52.231Z,12.33
2023-05-17T10:44:52.258Z,12.37
2023-05-17T10:45:52.209Z,12.41
2023-05-17T10:46:52.243Z,12.34
2023-05-17T10:47:52.277Z,12.39
2023-05-17T10:48:52.320Z,12.49
2023-05-17T10:49:52.242Z,12.62
2023-05-17T10:51:01.184Z,12.66
2023-05-17T10:51:52.149Z,12.63
2023-05-17T10:52:52.171Z,12.64
2023-05-17T10:53:52.137Z,12.67
2023-05-17T10:54:52.148Z,12.54
2023-05-17T10:55:52.086Z,12.46
2023-05-17T10:56:52.167Z,12.37
2023-05-17T10:57:52.246Z,12.24
2023-05-17T10:58:52.077Z,12.30
2023-05-17T10:59:52.044Z,12.41
2023-05-17T11:00:53.197Z,12.46
2023-05-17T11:01:52.012Z,12.42
2023-05-17T11:02:52.161Z,12.46
2023-05-17T11:03:52.060Z,12.57
2023-05-17T11:04:52.042Z,12.66
2023-05-17T11:05:52.442Z,12.70
2023-05-17T11:06:52.160Z,12.78
2023-05-17T11:07:52.014Z,12.79
2023-05-17T11:08:51.985Z,12.79
2023-05-17T11:09:51.931Z,12.75
2023-05-17T11:10:51.982Z,12.63
2023-05-17T11:11:51.918Z,12.56
2023-05-17T11:12:51.900Z,12.48
2023-05-17T11:13:51.901Z,12.45
2023-05-17T11:14:51.914Z,12.34
2023-05-17T11:15:52.467Z,12.24
2023-05-17T11:16:51.941Z,12.30
2023-05-17T11:17:51.938Z,12.29
2023-05-17T11:18:52.159Z,12.31
2023-05-17T11:19:51.928Z,12.38
2023-05-17T11:20:52.061Z,12.42
2023-05-17T11:21:51.826Z,12.51
2023-05-17T11:22:51.817Z,12.57
2023-05-17T11:23:51.819Z,12.62
2023-05-17T11:24:51.771Z,12.70
2023-05-17T11:25:52.129Z,12.71
2023-05-17T11:26:51.755Z,12.74
2023-05-17T11:27:51.805Z,12.84
2023-05-17T11:28:52.264Z,12.95
2023-05-17T11:29:51.717Z,13.04
2023-05-17T11:30:51.984Z,13.14
2023-05-17T11:31:51.720Z,13.11
2023-05-17T11:32:52.406Z,13.12
2023-05-17T11:33:51.853Z,13.18
2023-05-17T11:34:51.686Z,13.24
2023-05-17T11:35:51.822Z,13.22
2023-05-17T11:36:51.684Z,13.21
2023-05-17T11:37:51.654Z,13.25
2023-05-17T11:38:55.235Z,13.24
2023-05-17T11:39:51.608Z,13.14
2023-05-17T11:40:51.599Z,13.17
2023-05-17T11:41:51.605Z,13.22
2023-05-17T11:42:51.560Z,13.30
2023-05-17T11:43:51.590Z,13.38
2023-05-17T11:44:51.541Z,13.41
2023-05-17T11:45:53.497Z,13.49
2023-05-17T11:46:51.516Z,13.51
2023-05-17T11:47:51.584Z,13.55
2023-05-17T11:48:51.517Z,13.44
2023-05-17T11:49:53.144Z,13.22
2023-05-17T11:50:51.579Z,13.09
2023-05-17T11:51:52.395Z,12.96
2023-05-17T11:52:51.479Z,12.87
2023-05-17T11:53:51.441Z,12.85
2023-05-17T11:54:51.471Z,12.84
2023-05-17T11:55:51.427Z,12.79
2023-05-17T11:56:51.400Z,12.70
2023-05-17T11:57:51.435Z,12.75
2023-05-17T11:58:51.380Z,12.82
2023-05-17T11:59:51.444Z,12.96
2023-05-17T12:00:51.373Z,13.07
2023-05-17T12:01:51.437Z,13.22
2023-05-17T12:02:51.377Z,13.36
2023-05-17T12:03:51.344Z,13.51
2023-05-17T12:04:51.398Z,13.65
2023-05-17T12:05:51.394Z,13.70
2023-05-17T12:06:51.552Z,13.67
2023-05-17T12:07:51.318Z,13.63
2023-05-17T12:08:53.929Z,13.65
2023-05-17T12:09:51.289Z,13.59
2023-05-17T12:10:51.325Z,13.55
2023-05-17T12:11:51.241Z,13.69
2023-05-17T12:12:51.229Z,13.81
2023-05-17T12:13:51.277Z,13.94
2023-05-17T12:14:51.195Z,13.92
2023-05-17T12:15:51.237Z,14.02
2023-05-17T12:16:51.227Z,14.07
2023-05-17T12:17:51.941Z,14.12
2023-05-17T12:18:51.507Z,14.20
2023-05-17T12:19:51.257Z,14.27
2023-05-17T12:20:51.149Z,14.27
2023-05-17T12:21:51.145Z,14.27
2023-05-17T12:22:51.294Z,14.17
2023-05-17T12:23:51.279Z,13.88
2023-05-17T12:24:51.112Z,13.71
2023-05-17T12:25:51.081Z,13.58
2023-05-17T12:26:51.139Z,13.52
2023-05-17T12:27:51.088Z,13.25
2023-05-17T12:28:51.185Z,13.18
2023-05-17T12:29:51.066Z,13.07
2023-05-17T12:30:51.076Z,13.04
2023-05-17T12:31:51.109Z,12.93
2023-05-17T12:32:51.111Z,12.70
2023-05-17T12:33:51.108Z,12.62
2023-05-17T12:34:50.974Z,12.62
2023-05-17T12:35:50.968Z,12.67
2023-05-17T12:36:51.007Z,12.77
2023-05-17T12:37:50.971Z,12.84
2023-05-17T12:38:50.966Z,12.93
2023-05-17T12:39:51.054Z,13.02
2023-05-17T12:40:50.983Z,13.11
2023-05-17T12:41:54.447Z,13.15
2023-05-17T12:42:50.893Z,13.24
2023-05-17T12:43:53.104Z,13.29
2023-05-17T12:44:50.884Z,13.36
2023-05-17T12:45:50.885Z,13.43
2023-05-17T12:46:50.912Z,13.54
2023-05-17T12:47:50.921Z,13.56
2023-05-17T12:48:50.845Z,13.52
2023-05-17T12:49:50.818Z,13.51
2023-05-17T12:50:50.803Z,13.51
2023-05-17T12:51:50.844Z,13.52
2023-05-17T12:52:50.813Z,13.52
2023-05-17T12:53:50.785Z,13.54
2023-05-17T12:54:50.758Z,13.59
2023-05-17T12:55:50.903Z,13.62
2023-05-17T12:56:50.763Z,13.69
2023-05-17T12:57:50.746Z,13.73
2023-05-17T12:58:50.715Z,13.74
2023-05-17T12:59:50.709Z,13.62
2023-05-17T13:00:50.698Z,13.46
2023-05-17T13:01:50.671Z,13.43
2023-05-17T13:02:50.742Z,13.40
2023-05-17T13:03:50.787Z,13.36
2023-05-17T13:04:50.689Z,13.38
2023-05-17T13:05:50.640Z,13.46
2023-05-17T13:06:50.673Z,13.49
2023-05-17T13:07:50.645Z,13.56
2023-05-17T13:08:50.594Z,13.56
2023-05-17T13:09:50.609Z,13.62
2023-05-17T13:10:50.607Z,13.62
2023-05-17T13:11:50.587Z,13.56
2023-05-17T13:12:50.578Z,13.56
2023-05-17T13:13:50.541Z,13.69
2023-05-17T13:14:50.535Z,13.76
2023-05-17T13:15:50.604Z,13.74
2023-05-17T13:16:50.588Z,13.70
2023-05-17T13:17:50.576Z,13.79
2023-05-17T13:18:50.589Z,13.87
2023-05-17T13:19:50.620Z,13.80
2023-05-17T13:20:50.508Z,13.73
2023-05-17T13:21:50.465Z,13.79
2023-05-17T13:22:50.443Z,13.76
2023-05-17T13:23:50.455Z,13.81
2023-05-17T13:24:50.736Z,13.87
2023-05-17T13:25:50.479Z,13.84
2023-05-17T13:26:50.408Z,13.87
2023-05-17T13:27:50.680Z,13.81
2023-05-17T13:28:50.465Z,13.81
2023-05-17T13:29:50.607Z,13.83
2023-05-17T13:30:50.408Z,13.79
2023-05-17T13:31:50.418Z,13.70
2023-05-17T13:32:50.472Z,13.63
2023-05-17T13:33:50.636Z,13.62
2023-05-17T13:34:50.399Z,13.55
2023-05-17T13:35:50.463Z,13.62
2023-05-17T13:36:50.377Z,13.65
2023-05-17T13:37:50.300Z,13.61
2023-05-17T13:38:50.361Z,13.63
2023-05-17T13:39:50.273Z,13.63
2023-05-17T13:40:50.252Z,13.71
2023-05-17T13:41:50.295Z,13.74
2023-05-17T13:42:50.241Z,13.74
2023-05-17T13:43:50.254Z,13.70
2023-05-17T13:44:50.196Z,13.67
2023-05-17T13:45:50.220Z,13.74
2023-05-17T13:46:50.220Z,13.80
2023-05-17T13:47:50.320Z,13.95
2023-05-17T13:48:50.403Z,14.06
2023-05-17T13:49:50.146Z,14.16
2023-05-17T13:50:50.154Z,14.24
2023-05-17T13:51:50.128Z,14.17
2023-05-17T13:52:50.126Z,14.04
2023-05-17T13:53:50.126Z,13.95
2023-05-17T13:54:50.124Z,13.81
2023-05-17T13:55:50.096Z,13.71
2023-05-17T13:56:50.056Z,13.61
2023-05-17T13:57:50.067Z,13.55
2023-05-17T13:58:50.292Z,13.46
2023-05-17T13:59:50.078Z,13.38
2023-05-17T14:00:50.033Z,13.41
2023-05-17T14:01:50.050Z,13.40
2023-05-17T14:02:50.112Z,13.33
2023-05-17T14:03:50.069Z,13.37
2023-05-17T14:04:49.976Z,13.46
2023-05-17T14:05:50.045Z,13.47
2023-05-17T14:06:51.751Z,13.41
2023-05-17T14:07:50.897Z,13.43
2023-05-17T14:08:49.977Z,13.46
2023-05-17T14:09:49.971Z,13.54
2023-05-17T14:10:49.897Z,13.56
2023-05-17T14:11:49.940Z,13.58
2023-05-17T14:12:49.936Z,13.62
2023-05-17T14:13:49.921Z,13.62
2023-05-17T14:14:49.872Z,13.65
2023-05-17T14:15:49.863Z,13.69
2023-05-17T14:16:49.939Z,13.65
2023-05-17T14:17:49.995Z,13.58
2023-05-17T14:18:50.003Z,13.61
2023-05-17T14:19:49.940Z,13.70
2023-05-17T14:20:49.838Z,13.79
2023-05-17T14:21:49.843Z,13.91
2023-05-17T14:22:49.885Z,13.99
2023-05-17T14:23:49.845Z,13.98
2023-05-17T14:24:49.843Z,14.02
2023-05-17T14:25:49.780Z,13.96
2023-05-17T14:26:49.734Z,13.98
2023-05-17T14:27:49.741Z,13.99
2023-05-17T14:28:49.751Z,14.06
2023-05-17T14:29:49.718Z,14.09
2023-05-17T14:30:49.711Z,14.06
2023-05-17T14:31:49.688Z,14.02
2023-05-17T14:32:49.739Z,14.06
2023-05-17T14:33:49.733Z,14.02
2023-05-17T14:34:50.414Z,14.04
2023-05-17T14:35:49.641Z,14.04
2023-05-17T14:36:49.626Z,14.02
2023-05-17T14:37:49.606Z,14.01
2023-05-17T14:38:49.593Z,13.96
2023-05-17T14:40:05.289Z,13.83
2023-05-17T14:40:49.571Z,13.73
2023-05-17T14:41:49.586Z,13.71
2023-05-17T14:42:49.579Z,13.70
2023-05-17T14:43:49.581Z,13.62
2023-05-17T14:44:49.605Z,13.41
2023-05-17T14:45:49.546Z,13.40
2023-05-17T14:46:49.539Z,13.43
2023-05-17T14:47:49.608Z,13.47
2023-05-17T14:48:49.631Z,13.56
2023-05-17T14:49:49.505Z,13.63
2023-05-17T14:50:49.460Z,13.73
2023-05-17T14:51:49.472Z,13.80
2023-05-17T14:52:49.444Z,13.92
2023-05-17T14:53:49.463Z,14.02
2023-05-17T14:54:49.690Z,14.13
2023-05-17T14:55:49.445Z,14.24
2023-05-17T14:56:49.391Z,14.24
2023-05-17T14:57:50.037Z,14.13
2023-05-17T14:58:49.371Z,14.13
2023-05-17T14:59:49.383Z,14.19
2023-05-17T15:00:52.130Z,14.17
2023-05-17T15:01:49.330Z,14.12
2023-05-17T15:02:49.436Z,14.16
2023-05-17T15:03:49.412Z,14.12
2023-05-17T15:04:49.457Z,14.02
2023-05-17T15:05:49.321Z,14.02
2023-05-17T15:06:49.296Z,14.04
2023-05-17T15:07:49.318Z,13.98
2023-05-17T15:08:49.257Z,13.87
2023-05-17T15:09:49.296Z,13.73
2023-05-17T15:10:49.224Z,13.63
2023-05-17T15:11:49.238Z,13.56
2023-05-17T15:12:49.274Z,13.52
2023-05-17T15:13:49.204Z,13.51
2023-05-17T15:14:49.796Z,13.52
2023-05-17T15:15:49.187Z,13.46
2023-05-17T15:16:49.222Z,13.38
2023-05-17T15:17:51.124Z,13.33
2023-05-17T15:18:49.238Z,13.33
2023-05-17T15:19:49.359Z,13.36
2023-05-17T15:20:49.124Z,13.30
2023-05-17T15:21:49.143Z,13.32
2023-05-17T15:22:49.100Z,13.33
2023-05-17T15:23:49.121Z,13.36
2023-05-17T15:24:49.120Z,13.32
2023-05-17T15:25:49.078Z,13.33
2023-05-17T15:26:51.150Z,13.33
2023-05-17T15:27:49.065Z,13.36
2023-05-17T15:28:49.069Z,13.41
2023-05-17T15:29:49.030Z,13.46
2023-05-17T15:30:49.026Z,13.55
2023-05-17T15:31:49.033Z,13.49
2023-05-17T15:32:49.053Z,13.44
2023-05-17T15:33:49.017Z,13.44
2023-05-17T15:34:49.061Z,13.47
2023-05-17T15:35:48.967Z,13.52
2023-05-17T15:36:48.947Z,13.58
2023-05-17T15:37:48.984Z,13.56
2023-05-17T15:38:48.915Z,13.59
2023-05-17T15:39:48.961Z,13.61
2023-05-17T15:40:48.997Z,13.62
2023-05-17T15:41:48.941Z,13.61
2023-05-17T15:42:48.886Z,13.61
2023-05-17T15:43:49.040Z,13.67
2023-05-17T15:44:48.873Z,13.65
2023-05-17T15:45:48.885Z,13.59
2023-05-17T15:46:48.854Z,13.55
2023-05-17T15:47:48.914Z,13.52
2023-05-17T15:48:48.907Z,13.52
2023-05-17T15:49:48.820Z,13.55
2023-05-17T15:50:48.790Z,13.59
2023-05-17T15:51:48.781Z,13.67
2023-05-17T15:52:48.800Z,13.70
2023-05-17T15:53:49.840Z,13.70
2023-05-17T15:54:48.809Z,13.65
2023-05-17T15:55:48.807Z,13.58
2023-05-17T15:56:48.901Z,13.49
2023-05-17T15:57:48.723Z,13.51
2023-05-17T15:58:48.718Z,13.52
2023-05-17T15:59:48.695Z,13.51
2023-05-17T16:00:48.730Z,13.55
2023-05-17T16:01:51.668Z,13.56
2023-05-17T16:02:48.727Z,13.52
2023-05-17T16:03:48.746Z,13.40
2023-05-17T16:04:48.644Z,13.32
2023-05-17T16:05:48.756Z,13.22
2023-05-17T16:06:48.653Z,13.17
2023-05-17T16:07:48.608Z,13.14
2023-05-17T16:08:48.606Z,13.14
2023-05-17T16:09:48.681Z,13.15
2023-05-17T16:10:48.600Z,13.17
2023-05-17T16:11:49.591Z,13.12
2023-05-17T16:12:48.543Z,13.12
2023-05-17T16:13:48.624Z,13.14
2023-05-17T16:14:48.535Z,13.12
2023-05-17T16:15:48.516Z,13.09
2023-05-17T16:16:48.536Z,13.11
2023-05-17T16:17:48.539Z,13.14
2023-05-17T16:18:48.661Z,13.07
2023-05-17T16:19:48.517Z,12.99
2023-05-17T16:20:48.511Z,12.89
2023-05-17T16:21:50.407Z,12.88
2023-05-17T16:22:48.442Z,12.89
2023-05-17T16:23:48.435Z,12.93
2023-05-17T16:24:48.465Z,12.95
2023-05-17T16:25:48.409Z,12.92
2023-05-17T16:26:49.427Z,12.95
2023-05-17T16:27:48.430Z,12.97
2023-05-17T16:28:48.410Z,13.00
2023-05-17T16:29:48.360Z,12.99
2023-05-17T16:30:48.368Z,12.95
2023-05-17T16:31:48.371Z,12.95
2023-05-17T16:32:48.372Z,12.96
2023-05-17T16:33:48.331Z,12.97
2023-05-17T16:34:48.302Z,12.95
2023-05-17T16:35:48.302Z,12.95
2023-05-17T16:36:48.296Z,12.88
2023-05-17T16:37:48.262Z,12.79
2023-05-17T16:38:48.275Z,12.77
2023-05-17T16:39:48.303Z,12.77
2023-05-17T16:40:48.225Z,12.78
2023-05-17T16:41:48.247Z,12.81
2023-05-17T16:42:48.221Z,12.81
2023-05-17T16:43:48.232Z,12.79
2023-05-17T16:44:48.201Z,12.78
2023-05-17T16:45:48.205Z,12.78
2023-05-17T16:46:48.221Z,12.75
2023-05-17T16:47:48.206Z,12.69
2023-05-17T16:48:48.144Z,12.66
2023-05-17T16:49:48.129Z,12.60
2023-05-17T16:50:48.144Z,12.59
2023-05-17T16:51:48.184Z,12.62
2023-05-17T16:52:48.142Z,12.60
2023-05-17T16:53:48.092Z,12.59
2023-05-17T16:54:48.102Z,12.56
2023-05-17T16:55:48.081Z,12.48
2023-05-17T16:56:48.090Z,12.49
2023-05-17T16:57:48.105Z,12.49
2023-05-17T16:58:48.053Z,12.49
2023-05-17T16:59:48.048Z,12.46
2023-05-17T17:00:48.036Z,12.44
2023-05-17T17:01:48.037Z,12.44
2023-05-17T17:02:48.060Z,12.42
2023-05-17T17:03:47.996Z,12.42
2023-05-17T17:04:47.978Z,12.44
2023-05-17T17:05:47.951Z,12.41
2023-05-17T17:06:47.969Z,12.41
2023-05-17T17:07:48.018Z,12.41
2023-05-17T17:08:47.917Z,12.41
2023-05-17T17:09:48.433Z,12.39
2023-05-17T17:10:47.938Z,12.39
2023-05-17T17:11:47.906Z,12.33
2023-05-17T17:12:48.800Z,12.31
2023-05-17T17:13:47.863Z,12.31
2023-05-17T17:14:47.884Z,12.27
2023-05-17T17:15:47.880Z,12.23
2023-05-17T17:16:47.910Z,12.20
2023-05-17T17:17:47.954Z,12.19
2023-05-17T17:18:47.889Z,12.19
2023-05-17T17:19:47.819Z,12.19
2023-05-17T17:20:47.784Z,12.13
2023-05-17T17:21:47.767Z,12.08
2023-05-17T17:22:47.826Z,12.05
2023-05-17T17:23:47.810Z,12.06
2023-05-17T17:24:47.733Z,12.05
2023-05-17T17:25:47.762Z,12.04
2023-05-17T17:26:47.739Z,12.02
2023-05-17T17:27:47.701Z,12.01
2023-05-17T17:28:47.701Z,12.01
2023-05-17T17:29:47.715Z,12.04
2023-05-17T17:30:47.698Z,11.99
2023-05-17T17:31:47.691Z,11.94
2023-05-17T17:32:47.815Z,11.87
2023-05-17T17:33:48.327Z,11.87
2023-05-17T17:34:47.713Z,11.85
2023-05-17T17:35:47.623Z,11.83
2023-05-17T17:36:47.608Z,11.83
2023-05-17T17:37:47.620Z,11.83
2023-05-17T17:38:47.586Z,11.80
2023-05-17T17:39:47.675Z,11.80
2023-05-17T17:40:47.582Z,11.78
2023-05-17T17:41:47.546Z,11.78
2023-05-17T17:42:47.596Z,11.75
2023-05-17T17:43:47.532Z,11.72
2023-05-17T17:44:48.528Z,11.70
2023-05-17T17:45:47.554Z,11.68
2023-05-17T17:46:47.564Z,11.68
2023-05-17T17:47:47.560Z,11.65
2023-05-17T17:48:47.480Z,11.64
2023-05-17T17:49:47.513Z,11.59
2023-05-17T17:50:47.469Z,11.56
2023-05-17T17:51:47.445Z,11.56
2023-05-17T17:52:47.434Z,11.54
2023-05-17T17:53:47.422Z,11.52
2023-05-17T17:54:47.410Z,11.54
2023-05-17T17:55:47.412Z,11.52
2023-05-17T17:56:47.394Z,11.49
2023-05-17T17:57:47.366Z,11.44
2023-05-17T17:58:47.375Z,11.43
2023-05-17T17:59:47.361Z,11.43
2023-05-17T18:00:47.393Z,11.41
2023-05-17T18:01:47.419Z,11.39
2023-05-17T18:02:47.359Z,11.38
2023-05-17T18:03:47.319Z,11.36
2023-05-17T18:04:47.331Z,11.32
2023-05-17T18:05:47.336Z,11.29
2023-05-17T18:06:47.273Z,11.28
2023-05-17T18:07:47.252Z,11.28
2023-05-17T18:08:47.249Z,11.28
2023-05-17T18:09:47.258Z,11.27
2023-05-17T18:10:47.232Z,11.25
2023-05-17T18:11:47.217Z,11.21
2023-05-17T18:12:49.002Z,11.21
2023-05-17T18:13:47.275Z,11.20
2023-05-17T18:14:47.202Z,11.19
2023-05-17T18:15:47.223Z,11.20
2023-05-17T18:16:47.192Z,11.19
2023-05-17T18:17:47.165Z,11.21
2023-05-17T18:18:47.256Z,11.19
2023-05-17T18:19:48.617Z,11.19
2023-05-17T18:20:47.105Z,11.16
2023-05-17T18:21:47.106Z,11.16
2023-05-17T18:22:47.117Z,11.14
2023-05-17T18:23:47.078Z,11.13
2023-05-17T18:24:47.084Z,11.13
2023-05-17T18:25:47.054Z,11.11
2023-05-17T18:26:47.053Z,11.10
2023-05-17T18:27:47.025Z,11.09
2023-05-17T18:28:47.058Z,11.07
2023-05-17T18:29:47.022Z,11.02
2023-05-17T18:30:47.048Z,11.01
2023-05-17T18:31:47.025Z,10.96
2023-05-17T18:32:47.065Z,10.95
2023-05-17T18:33:47.026Z,10.91
2023-05-17T18:34:46.952Z,10.89
2023-05-17T18:35:46.984Z,10.89
2023-05-17T18:36:46.924Z,10.83
2023-05-17T18:37:46.916Z,10.81
2023-05-17T18:38:46.956Z,10.80
2023-05-17T18:39:46.991Z,10.80
2023-05-17T18:40:46.906Z,10.78
2023-05-17T18:41:46.878Z,10.77
2023-05-17T18:42:46.898Z,10.76
2023-05-17T18:43:46.915Z,10.74
2023-05-17T18:44:46.841Z,10.73
2023-05-17T18:45:46.849Z,10.71
2023-05-17T18:46:46.890Z,10.71
2023-05-17T18:47:46.875Z,10.70
2023-05-17T18:48:46.857Z,10.70
2023-05-17T18:49:46.785Z,10.68
2023-05-17T18:50:46.767Z,10.66
2023-05-17T18:51:46.763Z,10.63
2023-05-17T18:52:46.938Z,10.62
2023-05-17T18:53:46.830Z,10.62
2023-05-17T18:54:46.745Z,10.60
2023-05-17T18:55:46.725Z,10.60
2023-05-17T18:56:46.806Z,10.56
2023-05-17T18:57:46.708Z,10.55
2023-05-17T18:58:46.714Z,10.55
2023-05-17T18:59:46.664Z,10.52
2023-05-17T19:00:46.744Z,10.52
2023-05-17T19:01:46.765Z,10.51
2023-05-17T19:02:46.659Z,10.47
2023-05-17T19:03:46.643Z,10.46
2023-05-17T19:04:46.637Z,10.44
2023-05-17T19:05:46.661Z,10.43
2023-05-17T19:06:46.607Z,10.42
2023-05-17T19:07:46.573Z,10.39
2023-05-17T19:08:46.644Z,10.39
2023-05-17T19:09:46.626Z,10.37
2023-05-17T19:10:46.566Z,10.36
2023-05-17T19:11:46.626Z,10.34
2023-05-17T19:12:46.532Z,10.33
2023-05-17T19:13:46.559Z,10.32
2023-05-17T19:14:46.510Z,10.30
2023-05-17T19:15:46.575Z,10.30
2023-05-17T19:16:46.530Z,10.26
2023-05-17T19:17:46.560Z,10.22
2023-05-17T19:18:46.510Z,10.21
2023-05-17T19:19:46.442Z,10.19
2023-05-17T19:20:46.462Z,10.18
2023-05-17T19:21:46.447Z,10.18
2023-05-17T19:22:46.415Z,10.17
2023-05-17T19:23:46.409Z,10.17
2023-05-17T19:24:46.402Z,10.15
2023-05-17T19:25:46.429Z,10.12
2023-05-17T19:26:46.491Z,10.12
2023-05-17T19:27:46.358Z,10.12
2023-05-17T19:28:46.374Z,10.10
2023-05-17T19:29:46.356Z,10.09
2023-05-17T19:30:46.365Z,10.07
2023-05-17T19:31:46.411Z,10.07
2023-05-17T19:32:46.332Z,10.06
2023-05-17T19:33:46.951Z,10.04
2023-05-17T19:34:46.307Z,10.04
2023-05-17T19:35:46.293Z,10.03
2023-05-17T19:36:46.296Z,10.04
2023-05-17T19:37:46.259Z,10.03
2023-05-17T19:38:51.969Z,10.01
2023-05-17T19:39:46.411Z,10.00
2023-05-17T19:40:46.275Z,10.00
2023-05-17T19:41:46.258Z,10.00
2023-05-17T19:42:46.191Z,10.00
2023-05-17T19:43:46.195Z,9.97
2023-05-17T19:44:46.185Z,9.96
2023-05-17T19:45:46.178Z,9.93
2023-05-17T19:46:46.235Z,9.93
2023-05-17T19:47:46.169Z,9.93
2023-05-17T19:48:46.202Z,9.91
2023-05-17T19:49:46.169Z,9.88
2023-05-17T19:50:46.117Z,9.85
2023-05-17T19:51:46.142Z,9.83
2023-05-17T19:52:46.103Z,9.81
2023-05-17T19:53:53.648Z,9.81
2023-05-17T19:54:46.072Z,9.78
2023-05-17T19:55:46.056Z,9.73
2023-05-17T19:56:46.696Z,9.73
2023-05-17T19:57:46.035Z,9.73
2023-05-17T19:58:46.025Z,9.70
2023-05-17T19:59:45.994Z,9.71
2023-05-17T20:00:46.016Z,9.66
2023-05-17T20:01:46.052Z,9.63
2023-05-17T20:02:46.105Z,9.61
2023-05-17T20:03:46.160Z,9.60
2023-05-17T20:04:45.945Z,9.56
2023-05-17T20:05:45.992Z,9.56
2023-05-17T20:06:46.013Z,9.52
2023-05-17T20:07:45.947Z,9.49
2023-05-17T20:08:45.897Z,9.48
2023-05-17T20:09:45.932Z,9.45
2023-05-17T20:10:45.900Z,9.43
2023-05-17T20:11:45.880Z,9.43
2023-05-17T20:12:45.870Z,9.42
2023-05-17T20:13:49.796Z,9.40
2023-05-17T20:14:45.842Z,9.39
2023-05-17T20:15:45.825Z,9.39
2023-05-17T20:16:46.060Z,9.38
2023-05-17T20:17:45.838Z,9.35
2023-05-17T20:18:45.841Z,9.34
2023-05-17T20:19:46.112Z,9.32
2023-05-17T20:20:45.762Z,9.32
2023-05-17T20:21:45.810Z,9.30
2023-05-17T20:22:46.389Z,9.30
2023-05-17T20:23:45.725Z,9.28
2023-05-17T20:24:55.172Z,9.25
2023-05-17T20:25:45.764Z,9.25
2023-05-17T20:26:45.776Z,9.24
2023-05-17T20:27:45.774Z,9.21
2023-05-17T20:28:45.702Z,9.20
2023-05-17T20:29:45.672Z,9.21
2023-05-17T20:30:45.673Z,9.21
2023-05-17T20:31:45.988Z,9.18
2023-05-17T20:32:45.726Z,9.18
2023-05-17T20:33:45.627Z,9.20
2023-05-17T20:34:45.600Z,9.20
2023-05-17T20:35:45.609Z,9.16
2023-05-17T20:36:45.631Z,9.20
2023-05-17T20:37:45.585Z,9.20
2023-05-17T20:38:45.593Z,9.20
2023-05-17T20:39:45.610Z,9.20
2023-05-17T20:40:45.552Z,9.20
2023-05-17T20:41:45.527Z,9.20
2023-05-17T20:42:45.533Z,9.18
2023-05-17T20:43:45.543Z,9.18
2023-05-17T20:44:45.514Z,9.18
2023-05-17T20:45:45.575Z,9.15
2023-05-17T20:46:45.479Z,9.15
2023-05-17T20:47:45.580Z,9.13
2023-05-17T20:48:45.453Z,9.15
2023-05-17T20:49:45.483Z,9.15
2023-05-17T20:50:45.477Z,9.15
2023-05-17T20:51:45.553Z,9.13
2023-05-17T20:52:45.399Z,9.15
2023-05-17T20:53:45.418Z,9.13
2023-05-17T20:54:45.390Z,9.13
2023-05-17T20:55:45.448Z,9.12
2023-05-17T20:56:45.371Z,9.09
2023-05-17T20:57:45.353Z,9.09
2023-05-17T20:58:45.349Z,9.09
2023-05-17T20:59:45.376Z,9.06
2023-05-17T21:00:45.387Z,9.09
2023-05-17T21:01:45.369Z,9.10
2023-05-17T21:02:45.427Z,9.09
2023-05-17T21:03:45.639Z,9.09
2023-05-17T21:04:45.266Z,9.10
2023-05-17T21:05:45.312Z,9.10
2023-05-17T21:06:45.254Z,9.12
2023-05-17T21:07:45.251Z,9.12
2023-05-17T21:08:45.248Z,9.13
2023-05-17T21:09:45.236Z,9.15
2023-05-17T21:10:45.205Z,9.15
2023-05-17T21:11:45.258Z,9.15
2023-05-17T21:12:45.189Z,9.15
2023-05-17T21:13:45.206Z,9.15
2023-05-17T21:14:45.172Z,9.13
2023-05-17T21:15:45.242Z,9.13
2023-05-17T21:16:45.150Z,9.12
2023-05-17T21:17:45.256Z,9.10
2023-05-17T21:18:45.325Z,9.06
2023-05-17T21:19:45.166Z,9.09
2023-05-17T21:20:45.190Z,9.05
2023-05-17T21:21:45.115Z,9.04
2023-05-17T21:22:45.091Z,9.02
2023-05-17T21:23:45.125Z,9.01
2023-05-17T21:24:45.184Z,8.99
2023-05-17T21:25:45.141Z,8.97
2023-05-17T21:26:45.101Z,8.94
2023-05-17T21:27:45.116Z,8.91
2023-05-17T21:28:44.999Z,8.88
2023-05-17T21:29:45.070Z,8.86
2023-05-17T21:30:45.125Z,8.84
2023-05-17T21:31:45.151Z,8.78
2023-05-17T21:32:45.093Z,8.78
2023-05-17T21:33:45.020Z,8.76
2023-05-17T21:34:44.992Z,8.76
2023-05-17T21:35:45.015Z,8.75
2023-05-17T21:36:44.947Z,8.76
2023-05-17T21:37:44.963Z,8.72
2023-05-17T21:38:44.938Z,8.71
2023-05-17T21:39:44.898Z,8.71
2023-05-17T21:40:44.905Z,8.71
2023-05-17T21:41:44.923Z,8.71
2023-05-17T21:42:44.854Z,8.69
2023-05-17T21:43:44.862Z,8.69
2023-05-17T21:44:44.894Z,8.66
2023-05-17T21:45:44.876Z,8.65
2023-05-17T21:46:44.844Z,8.62
2023-05-17T21:47:44.821Z,8.60
2023-05-17T21:48:44.823Z,8.55
2023-05-17T21:49:44.786Z,8.54
2023-05-17T21:50:44.764Z,8.53
2023-05-17T21:51:44.747Z,8.50
2023-05-17T21:52:44.737Z,8.50
2023-05-17T21:53:44.730Z,8.47
2023-05-17T21:54:44.770Z,8.45
2023-05-17T21:56:00.776Z,8.45
2023-05-17T21:56:44.696Z,8.42
2023-05-17T21:57:45.676Z,8.40
2023-05-17T21:58:44.703Z,8.40
2023-05-17T21:59:44.675Z,8.42
2023-05-17T22:00:44.645Z,8.42
2023-05-17T22:01:44.824Z,8.45
2023-05-17T22:02:44.844Z,8.44
2023-05-17T22:03:44.764Z,8.44
2023-05-17T22:04:44.680Z,8.45
2023-05-17T22:05:44.606Z,8.47
2023-05-17T22:06:44.576Z,8.45
2023-05-17T22:07:44.612Z,8.48
2023-05-17T22:08:44.558Z,8.50
2023-05-17T22:09:44.620Z,8.51
2023-05-17T22:10:44.547Z,8.53
2023-05-17T22:11:44.520Z,8.55
2023-05-17T22:12:44.564Z,8.58
2023-05-17T22:13:44.524Z,8.60
2023-05-17T22:14:44.543Z,8.62
2023-05-17T22:15:44.599Z,8.63
2023-05-17T22:16:44.489Z,8.66
2023-05-17T22:17:51.505Z,8.68
2023-05-17T22:18:44.540Z,8.71
2023-05-17T22:19:44.436Z,8.72
2023-05-17T22:20:44.420Z,8.72
2023-05-17T22:21:44.411Z,8.73
2023-05-17T22:22:44.403Z,8.75
2023-05-17T22:23:44.415Z,8.76
2023-05-17T22:24:44.383Z,8.78
2023-05-17T22:25:44.368Z,8.78
2023-05-17T22:26:44.354Z,8.78
2023-05-17T22:27:44.430Z,8.81
2023-05-17T22:28:44.332Z,8.83
2023-05-17T22:29:44.326Z,8.83
2023-05-17T22:30:44.308Z,8.84
2023-05-17T22:31:44.368Z,8.84
2023-05-17T22:32:44.396Z,8.87
2023-05-17T22:33:44.318Z,8.87
2023-05-17T22:34:45.037Z,8.88
2023-05-17T22:35:46.054Z,8.88
2023-05-17T22:36:44.314Z,8.90
2023-05-17T22:37:44.263Z,8.90
2023-05-17T22:38:44.219Z,8.91
2023-05-17T22:39:44.262Z,8.93
2023-05-17T22:40:44.203Z,8.91
2023-05-17T22:41:44.207Z,8.90
2023-05-17T22:42:44.195Z,8.93
2023-05-17T22:43:44.229Z,8.91
2023-05-17T22:44:44.146Z,8.93
2023-05-17T22:45:44.170Z,8.94
2023-05-17T22:46:44.199Z,8.97
2023-05-17T22:47:44.217Z,8.94
2023-05-17T22:48:44.108Z,8.94
2023-05-17T22:49:44.124Z,8.94
2023-05-17T22:50:44.093Z,8.94
2023-05-17T22:51:44.104Z,8.94
2023-05-17T22:52:44.062Z,8.94
2023-05-17T22:53:44.111Z,8.91
2023-05-17T22:54:44.110Z,8.91
2023-05-17T22:55:44.032Z,8.90
2023-05-17T22:56:44.032Z,8.88
2023-05-17T22:57:46.793Z,8.87
2023-05-17T22:58:44.030Z,8.87
2023-05-17T22:59:44.235Z,8.86
2023-05-17T23:00:43.983Z,8.87
2023-05-17T23:01:44.009Z,8.84
2023-05-17T23:02:44.008Z,8.81
2023-05-17T23:03:43.955Z,8.81
2023-05-17T23:04:43.927Z,8.76
2023-05-17T23:05:43.937Z,8.75
2023-05-17T23:06:43.927Z,8.69
2023-05-17T23:07:43.917Z,8.69
2023-05-17T23:08:43.895Z,8.66
2023-05-17T23:09:44.035Z,8.65
2023-05-17T23:10:43.902Z,8.62
2023-05-17T23:11:43.920Z,8.58
2023-05-17T23:12:43.852Z,8.55
2023-05-17T23:13:43.845Z,8.51
2023-05-17T23:14:43.829Z,8.50
2023-05-17T23:15:43.860Z,8.50
2023-05-17T23:16:43.831Z,8.48
2023-05-17T23:17:43.870Z,8.47
2023-05-17T23:18:43.850Z,8.44
2023-05-17T23:19:43.831Z,8.40
2023-05-17T23:20:43.789Z,8.39
2023-05-17T23:21:43.757Z,8.36
2023-05-17T23:22:43.830Z,8.36
2023-05-17T23:23:43.733Z,8.35
2023-05-17T23:24:43.738Z,8.33
2023-05-17T23:25:43.702Z,8.33